Time;durP1;ratioP1;P1;durP2;ratioP2;P2;SDS_P1;SDS_P2;PMS_P1;PMS_P2;Temp;Humidity;BMP_temperature;BMP_pressure;BME280_temperature;BME280_humidity;BME280_pressure;Samples;Min_cycle;Max_cycle;Signal;HPM_P1;HPM_P2
2022/06/13 00:01:15;;;;;;;1.48;1.15;;;22.00;51.90;;;;;;6204173;28;20104;-69
2022/06/13 00:04:16;;;;;;;1.65;1.25;;;22.00;52.30;;;;;;6195977;28;20015;-68
2022/06/13 00:07:16;;;;;;;2.35;1.42;;;22.00;51.90;;;;;;6195532;28;20033;-69
2022/06/13 00:10:17;;;;;;;2.28;1.60;;;22.00;52.00;;;;;;6195766;28;20313;-69
2022/06/13 00:13:18;;;;;;;1.40;1.17;;;22.00;52.00;;;;;;6195116;28;20105;-68
2022/06/13 00:16:20;;;;;;;2.10;1.40;;;22.00;52.00;;;;;;6209795;28;20089;-69
2022/06/13 00:19:20;;;;;;;2.00;1.30;;;22.00;52.00;;;;;;6220017;28;20546;-68
2022/06/13 00:22:21;;;;;;;1.80;1.20;;;22.00;52.00;;;;;;6197072;28;20027;-69
2022/06/13 00:25:21;;;;;;;1.50;1.20;;;22.00;52.00;;;;;;6201595;28;20022;-70
2022/06/13 00:28:22;;;;;;;1.70;1.38;;;22.00;52.00;;;;;;6202352;28;20033;-68
2022/06/13 00:31:23;;;;;;;1.90;1.23;;;22.00;52.00;;;;;;6205705;28;20033;-69
2022/06/13 00:34:24;;;;;;;1.65;1.02;;;21.90;51.90;;;;;;6196186;28;20030;-69
2022/06/13 00:37:24;;;;;;;1.70;1.17;;;22.00;52.00;;;;;;6194607;28;20163;-68
2022/06/13 00:40:25;;;;;;;1.17;1.02;;;22.00;52.00;;;;;;6199707;28;20542;-69
2022/06/13 00:43:26;;;;;;;1.17;1.00;;;22.00;52.60;;;;;;6219612;28;20480;-69
2022/06/13 00:46:33;;;;;;;1.25;0.98;;;21.90;51.90;;;;;;6207285;28;20033;-69
2022/06/13 00:49:38;;;;;;;1.58;1.20;;;22.00;52.10;;;;;;6195216;28;20094;-69
2022/06/13 00:52:45;;;;;;;1.83;1.05;;;22.00;52.00;;;;;;6216764;28;20046;-68
2022/06/13 00:55:51;;;;;;;1.85;1.48;;;22.00;52.00;;;;;;6214280;28;20461;-68
2022/06/13 00:59:02;;;;;;;1.20;1.10;;;22.00;52.00;;;;;;6194959;28;20069;-69
2022/06/13 01:02:03;;;;;;;1.90;1.25;;;22.00;52.10;;;;;;6208967;28;20026;-68
2022/06/13 01:05:04;;;;;;;1.70;1.30;;;22.00;52.00;;;;;;6219744;28;20021;-68
2022/06/13 01:08:08;;;;;;;1.65;1.15;;;22.00;52.10;;;;;;6200203;28;20485;-69
2022/06/13 01:11:18;;;;;;;1.20;1.00;;;22.00;52.10;;;;;;6205832;28;20053;-68
2022/06/13 01:14:27;;;;;;;2.42;1.38;;;22.00;52.10;;;;;;6224118;28;20030;-69
2022/06/13 01:18:14;;;;;;;2.00;1.45;;;21.90;52.00;;;;;;6189368;28;20057;-69
2022/06/13 01:21:42;;;;;;;1.60;1.27;;;21.90;52.00;;;;;;6204692;28;20060;-71
2022/06/13 01:24:42;;;;;;;1.08;0.95;;;22.00;52.10;;;;;;6223986;28;20026;-69
2022/06/13 01:28:24;;;;;;;1.73;1.27;;;22.00;52.10;;;;;;6206313;28;20034;-68
2022/06/13 01:31:47;;;;;;;1.60;1.20;;;22.00;52.10;;;;;;6198114;28;20050;-69
2022/06/13 01:34:56;;;;;;;1.92;1.30;;;21.90;52.00;;;;;;6199969;28;20032;-69
2022/06/13 01:38:24;;;;;;;2.20;1.20;;;22.00;52.10;;;;;;6215792;28;20585;-68
2022/06/13 01:42:14;;;;;;;1.95;1.35;;;22.00;52.10;;;;;;6218777;28;20030;-68
2022/06/13 01:45:20;;;;;;;1.55;1.17;;;21.90;52.00;;;;;;6145259;28;20042;-68
2022/06/13 01:48:56;;;;;;;1.30;1.10;;;21.90;52.10;;;;;;6217748;28;20022;-68
2022/06/13 01:51:59;;;;;;;1.23;1.00;;;22.00;52.10;;;;;;6215529;28;20023;-68
2022/06/13 01:55:25;;;;;;;1.98;1.30;;;22.00;52.10;;;;;;6221514;28;20773;-69
2022/06/13 01:58:51;;;;;;;1.42;0.80;;;22.00;52.10;;;;;;6203282;28;20097;-69
2022/06/13 02:02:15;;;;;;;1.33;1.13;;;21.90;52.10;;;;;;6196972;28;20027;-69
2022/06/13 02:05:23;;;;;;;1.55;1.00;;;22.00;52.10;;;;;;6197951;28;20033;-69
2022/06/13 02:08:34;;;;;;;1.20;1.00;;;22.00;52.10;;;;;;6211574;28;20628;-69
2022/06/13 02:11:47;;;;;;;1.38;1.10;;;22.00;52.20;;;;;;6220996;28;20041;-68
2022/06/13 02:15:09;;;;;;;1.08;0.98;;;22.00;52.10;;;;;;6198038;28;20122;-69
2022/06/13 02:18:16;;;;;;;1.50;1.10;;;21.90;52.10;;;;;;6210489;28;20022;-69
2022/06/13 02:21:20;;;;;;;1.48;1.10;;;21.90;52.10;;;;;;6222674;28;20339;-68
2022/06/13 02:24:25;;;;;;;1.37;1.00;;;22.00;52.20;;;;;;6199288;28;20027;-68
2022/06/13 02:27:31;;;;;;;1.20;1.00;;;21.90;52.10;;;;;;6204327;28;20272;-68
2022/06/13 02:30:37;;;;;;;1.25;1.00;;;22.00;52.20;;;;;;6221534;28;20037;-69
2022/06/13 02:33:47;;;;;;;1.17;0.90;;;21.90;52.10;;;;;;6206480;28;20257;-69
2022/06/13 02:36:54;;;;;;;0.95;0.75;;;22.00;52.20;;;;;;6197673;28;20104;-70
2022/06/13 02:40:17;;;;;;;1.15;1.00;;;21.90;52.10;;;;;;6196003;28;20038;-69
2022/06/13 02:43:44;;;;;;;1.27;0.93;;;22.00;52.20;;;;;;6208700;28;20509;-71
2022/06/13 02:47:16;;;;;;;1.45;1.02;;;22.00;52.20;;;;;;6221969;28;20030;-69
2022/06/13 02:50:26;;;;;;;1.23;1.00;;;21.90;52.80;;;;;;6142963;28;20405;-69
2022/06/13 02:53:36;;;;;;;1.10;0.90;;;22.00;52.20;;;;;;6197223;28;20029;-69
2022/06/13 02:57:24;;;;;;;1.00;0.90;;;22.00;52.20;;;;;;6196372;28;20038;-69
2022/06/13 03:00:54;;;;;;;1.40;1.08;;;22.00;52.20;;;;;;6167662;28;20057;-69
2022/06/13 03:04:19;;;;;;;0.80;0.77;;;21.90;52.20;;;;;;6196438;28;20065;-69
2022/06/13 03:07:38;;;;;;;1.20;1.00;;;22.00;52.20;;;;;;6218891;28;20069;-71
2022/06/13 03:10:48;;;;;;;1.52;1.10;;;21.90;52.90;;;;;;6194915;28;20517;-71
2022/06/13 03:14:01;;;;;;;1.20;0.95;;;21.90;52.20;;;;;;6205624;28;20079;-72
2022/06/13 03:17:25;;;;;;;0.90;0.70;;;21.90;52.20;;;;;;6219877;28;20041;-72
2022/06/13 03:20:41;;;;;;;2.25;0.98;;;21.90;52.20;;;;;;6194540;28;20508;-72
2022/06/13 03:23:46;;;;;;;1.02;0.82;;;22.00;52.30;;;;;;6205190;28;20030;-72
2022/06/13 03:26:53;;;;;;;;;;;22.00;52.30;;;;;;6195788;28;20500;-71
2022/06/13 03:30:16;;;;;;;1.02;0.90;;;22.00;52.30;;;;;;6195757;28;19905;-71
2022/06/13 03:33:41;;;;;;;0.90;0.80;;;22.00;52.30;;;;;;6195362;28;20564;-69
2022/06/13 03:36:47;;;;;;;1.58;1.08;;;22.00;52.30;;;;;;6195142;28;20051;-71
2022/06/13 03:39:55;;;;;;;1.00;0.90;;;22.00;52.30;;;;;;6211630;28;20041;-71
2022/06/13 03:43:09;;;;;;;1.70;1.23;;;22.00;52.30;;;;;;6219147;28;20054;-69
2022/06/13 03:46:15;;;;;;;1.00;0.88;;;22.00;52.30;;;;;;6195100;28;20026;-69
2022/06/13 03:49:39;;;;;;;0.93;0.80;;;21.90;52.20;;;;;;6204493;28;20421;-69
2022/06/13 03:52:43;;;;;;;1.20;0.90;;;21.90;52.20;;;;;;6217916;28;20108;-69
2022/06/13 03:55:51;;;;;;;1.00;0.82;;;21.90;52.20;;;;;;6195780;28;20057;-69
2022/06/13 03:58:58;;;;;;;1.02;0.90;;;21.90;52.20;;;;;;6194475;28;20037;-71
2022/06/13 04:02:02;;;;;;;0.98;0.90;;;21.90;52.30;;;;;;6195067;28;20022;-71
2022/06/13 04:05:03;;;;;;;1.73;1.20;;;21.90;52.20;;;;;;6209639;28;20033;-71
2022/06/13 04:08:07;;;;;;;1.40;0.98;;;21.90;52.30;;;;;;6218802;28;20032;-69
2022/06/13 04:11:10;;;;;;;1.00;0.70;;;21.90;52.20;;;;;;6192825;28;20389;-69
2022/06/13 04:14:51;;;;;;;1.88;0.80;;;21.90;52.30;;;;;;6200806;28;20028;-69
2022/06/13 04:18:02;;;;;;;1.23;0.90;;;21.90;52.30;;;;;;6219715;28;20022;-71
2022/06/13 04:21:18;;;;;;;0.90;0.80;;;21.90;52.30;;;;;;6198024;28;20031;-71
2022/06/13 04:24:24;;;;;;;0.63;0.63;;;21.90;52.30;;;;;;6200115;28;20026;-71
2022/06/13 04:27:29;;;;;;;1.20;0.93;;;21.90;52.30;;;;;;6218852;28;20026;-68
2022/06/13 04:30:32;;;;;;;0.90;0.90;;;22.00;52.40;;;;;;6202709;28;20579;-68
2022/06/13 04:33:47;;;;;;;1.40;1.10;;;21.90;52.40;;;;;;6192887;28;20350;-69
2022/06/13 04:36:49;;;;;;;1.02;0.85;;;21.90;52.30;;;;;;6193254;28;20093;-71
2022/06/13 04:39:57;;;;;;;1.00;0.80;;;21.90;52.30;;;;;;6201428;28;20034;-69
2022/06/13 04:43:00;;;;;;;1.13;0.80;;;22.00;52.40;;;;;;6222147;28;20056;-69
2022/06/13 04:46:20;;;;;;;1.15;0.90;;;21.90;52.30;;;;;;6222446;28;20022;-68
2022/06/13 04:49:42;;;;;;;1.10;0.93;;;21.90;52.40;;;;;;6219442;28;20085;-69
2022/06/13 04:52:46;;;;;;;1.70;0.90;;;21.90;52.30;;;;;;6202813;28;20105;-71
2022/06/13 04:55:50;;;;;;;0.90;0.75;;;21.90;52.40;;;;;;6207979;28;20105;-71
2022/06/13 04:58:55;;;;;;;1.30;1.00;;;21.90;52.40;;;;;;6198646;28;20046;-69
2022/06/13 05:01:57;;;;;;;1.45;1.05;;;21.90;52.40;;;;;;6210776;28;20035;-72
2022/06/13 05:04:58;;;;;;;1.42;1.13;;;21.90;52.30;;;;;;6203602;28;20026;-69
2022/06/13 05:07:59;;;;;;;1.60;1.08;;;21.90;52.40;;;;;;6223126;28;20254;-69
2022/06/13 05:11:11;;;;;;;1.00;0.77;;;21.90;52.40;;;;;;6209445;28;20027;-69
2022/06/13 05:14:21;;;;;;;1.00;0.80;;;21.90;52.40;;;;;;6180860;28;20558;-68
2022/06/13 05:17:49;;;;;;;1.02;0.90;;;21.90;52.40;;;;;;6222414;28;20022;-69
2022/06/13 05:21:04;;;;;;;1.08;0.90;;;21.90;52.40;;;;;;6211861;28;20030;-71
2022/06/13 05:24:29;;;;;;;1.30;0.90;;;21.90;52.40;;;;;;6197890;28;20045;-69
2022/06/13 05:27:29;;;;;;;1.00;0.90;;;21.90;52.40;;;;;;6220650;28;20026;-71
2022/06/13 05:30:30;;;;;;;1.30;0.85;;;21.90;52.40;;;;;;6213981;28;20093;-69
2022/06/13 05:33:35;;;;;;;1.33;0.90;;;21.90;52.40;;;;;;6206324;28;20144;-69
2022/06/13 05:36:36;;;;;;;1.58;1.10;;;21.90;52.40;;;;;;6206068;28;20102;-69
2022/06/13 05:39:37;;;;;;;0.80;0.80;;;21.90;52.40;;;;;;6197462;28;20054;-69
2022/06/13 05:42:37;;;;;;;1.33;0.90;;;21.90;52.40;;;;;;6220696;28;20499;-69
2022/06/13 05:45:40;;;;;;;1.73;0.88;;;22.00;52.60;;;;;;6216334;28;20032;-69
2022/06/13 05:48:40;;;;;;;1.00;0.80;;;21.90;52.40;;;;;;6192834;28;20452;-69
2022/06/13 05:51:43;;;;;;;1.80;0.90;;;21.90;52.40;;;;;;6207733;28;20033;-68
2022/06/13 05:54:44;;;;;;;1.48;0.80;;;21.90;52.50;;;;;;6200371;28;20065;-68
2022/06/13 05:57:45;;;;;;;1.45;0.70;;;21.90;52.40;;;;;;6200073;28;20047;-68
2022/06/13 06:00:54;;;;;;;0.98;0.88;;;22.00;52.50;;;;;;6208833;28;20496;-68
2022/06/13 06:03:55;;;;;;;1.08;0.98;;;21.90;52.50;;;;;;6223455;28;20034;-68
2022/06/13 06:06:56;;;;;;;1.55;0.90;;;21.90;52.40;;;;;;6223318;28;20373;-68
2022/06/13 06:09:57;;;;;;;1.05;0.70;;;21.90;52.50;;;;;;6219806;28;20436;-71
2022/06/13 06:12:57;;;;;;;2.33;1.15;;;21.90;52.50;;;;;;6220351;28;20076;-68
2022/06/13 06:16:00;;;;;;;2.58;1.20;;;21.90;52.40;;;;;;6218966;28;20444;-68
2022/06/13 06:19:01;;;;;;;1.95;1.10;;;21.90;52.30;;;;;;6209087;28;20396;-68
2022/06/13 06:22:01;;;;;;;2.10;1.02;;;21.90;52.20;;;;;;6214172;28;20033;-68
2022/06/13 06:25:02;;;;;;;4.30;1.15;;;21.90;52.20;;;;;;6223451;28;20161;-68
2022/06/13 06:28:03;;;;;;;5.82;1.40;;;21.90;51.90;;;;;;6199134;28;20113;-68
2022/06/13 06:31:04;;;;;;;3.55;1.40;;;21.90;51.80;;;;;;6196770;28;20610;-71
2022/06/13 06:34:04;;;;;;;6.68;1.25;;;21.90;51.60;;;;;;6197090;28;20528;-71
2022/06/13 06:37:05;;;;;;;3.45;1.40;;;21.90;51.30;;;;;;6173991;28;20366;-72
2022/06/13 06:40:07;;;;;;;2.20;1.10;;;21.90;51.60;;;;;;6213224;28;20037;-72
2022/06/13 06:43:09;;;;;;;4.50;1.42;;;22.00;51.30;;;;;;6202024;28;20536;-72
2022/06/13 06:46:11;;;;;;;3.53;1.50;;;22.00;51.70;;;;;;6207412;28;20477;-72
2022/06/13 06:49:12;;;;;;;3.90;1.40;;;22.10;51.90;;;;;;6220950;28;20017;-72
2022/06/13 06:52:12;;;;;;;3.80;1.63;;;22.10;51.90;;;;;;6211138;28;20230;-72
2022/06/13 07:01:54;;;;;;;3.25;1.70;;;22.10;52.80;;;;;;6201460;28;20017;-72
2022/06/13 07:05:01;;;;;;;5.80;3.15;;;22.20;53.10;;;;;;6215984;28;20041;-69
2022/06/13 07:08:02;;;;;;;4.70;2.40;;;22.20;53.10;;;;;;6220475;28;20033;-70
2022/06/13 07:14:32;;;;;;;4.40;2.10;;;22.20;53.50;;;;;;6195564;28;20030;-72
2022/06/13 07:17:33;;;;;;;9.95;2.50;;;22.20;54.30;;;;;;6195550;28;20022;-72
2022/06/13 07:20:33;;;;;;;4.32;2.10;;;22.20;53.90;;;;;;6195398;28;20035;-72
2022/06/13 07:23:34;;;;;;;6.85;1.95;;;22.20;53.80;;;;;;6199997;28;20061;-69
2022/06/13 07:26:35;;;;;;;3.67;1.75;;;22.20;53.70;;;;;;6215553;28;20406;-68
2022/06/13 07:29:36;;;;;;;4.63;2.10;;;22.20;53.70;;;;;;6194815;28;20650;-69
2022/06/13 07:32:37;;;;;;;2.60;1.40;;;22.20;53.60;;;;;;6194517;28;20041;-69
2022/06/13 07:35:39;;;;;;;3.30;1.77;;;22.20;53.70;;;;;;6195579;28;20042;-72
2022/06/13 07:38:39;;;;;;;8.50;2.25;;;22.30;53.50;;;;;;6211408;28;20053;-70
2022/06/13 07:41:40;;;;;;;27.70;3.17;;;22.30;53.90;;;;;;6218868;28;20026;-70
2022/06/13 07:44:41;;;;;;;10.73;3.00;;;22.20;54.20;;;;;;6208059;28;20034;-70
2022/06/13 07:47:43;;;;;;;14.25;2.17;;;22.30;54.50;;;;;;6219379;28;20018;-70
2022/06/13 07:50:43;;;;;;;6.50;1.80;;;22.30;54.30;;;;;;6218951;28;20105;-69
2022/06/13 07:53:44;;;;;;;7.53;2.25;;;22.30;54.40;;;;;;6218038;28;20036;-70
2022/06/13 07:56:45;;;;;;;6.50;1.70;;;22.30;54.30;;;;;;6219731;28;20034;-72
2022/06/13 07:59:46;;;;;;;4.45;1.65;;;22.30;54.20;;;;;;6197425;28;20041;-72
2022/06/13 08:02:47;;;;;;;4.32;1.52;;;22.30;54.30;;;;;;6195177;28;20034;-70
2022/06/13 08:05:48;;;;;;;1.95;1.40;;;22.30;54.40;;;;;;6194263;28;20105;-70
2022/06/13 08:08:50;;;;;;;4.78;1.50;;;22.30;54.40;;;;;;6207174;28;20018;-70
2022/06/13 08:11:51;;;;;;;2.80;1.48;;;22.30;54.20;;;;;;6219203;28;20077;-72
2022/06/13 08:14:52;;;;;;;2.88;1.70;;;22.30;54.30;;;;;;6209235;28;20173;-69
2022/06/13 08:17:52;;;;;;;2.17;1.42;;;22.30;54.30;;;;;;6197727;28;20045;-72
2022/06/13 08:20:53;;;;;;;2.35;1.25;;;22.30;54.20;;;;;;6218827;28;20038;-72
2022/06/13 08:23:53;;;;;;;1.67;1.20;;;22.30;54.20;;;;;;6201943;28;20050;-69
2022/06/13 08:26:54;;;;;;;2.10;1.30;;;22.20;54.10;;;;;;6216864;28;20037;-69
2022/06/13 08:29:55;;;;;;;3.67;1.55;;;22.20;54.00;;;;;;6212740;28;20035;-72
2022/06/13 08:32:55;;;;;;;1.67;1.20;;;22.20;54.10;;;;;;6216992;28;20504;-72
2022/06/13 08:35:56;;;;;;;2.03;1.30;;;22.20;54.30;;;;;;6194657;28;20062;-72
2022/06/13 08:38:57;;;;;;;5.35;1.48;;;22.20;54.10;;;;;;6194618;28;20034;-72
2022/06/13 08:42:19;;;;;;;2.15;1.50;;;22.20;53.90;;;;;;6194424;28;20482;-72
2022/06/13 08:45:43;;;;;;;1.77;1.10;;;22.30;53.90;;;;;;6214662;28;20026;-72
2022/06/13 08:48:45;;;;;;;2.22;1.20;;;22.30;54.00;;;;;;6218665;28;20025;-71
2022/06/13 08:52:04;;;;;;;4.15;1.60;;;22.30;54.00;;;;;;6218479;28;20025;-71
2022/06/13 08:55:19;;;;;;;2.35;1.38;;;22.30;54.00;;;;;;6212019;28;20105;-72
2022/06/13 08:58:28;;;;;;;1.85;1.10;;;22.30;54.00;;;;;;6216910;28;20057;-71
2022/06/13 09:01:39;;;;;;;3.22;1.50;;;22.30;54.00;;;;;;6194355;28;20338;-75
2022/06/13 09:04:50;;;;;;;1999.90;919.75;;;22.20;53.90;;;;;;6206901;28;20029;-69
2022/06/13 09:08:26;;;;;;;1999.90;987.03;;;22.30;54.60;;;;;;6218740;28;20053;-69
2022/06/13 09:11:38;;;;;;;1999.90;946.28;;;22.40;54.50;;;;;;6194009;28;20026;-69
2022/06/13 09:14:45;;;;;;;1999.90;602.95;;;22.40;54.00;;;;;;6204473;28;20037;-69
2022/06/13 09:17:55;;;;;;;1380.60;449.48;;;22.40;53.90;;;;;;6218447;28;20110;-69
2022/06/13 09:21:17;;;;;;;1308.28;456.45;;;22.40;54.60;;;;;;6194762;28;20034;-68
2022/06/13 09:24:31;;;;;;;1065.95;392.63;;;22.40;54.30;;;;;;6199605;28;20080;-69
2022/06/13 09:27:54;;;;;;;1079.70;398.63;;;22.40;54.10;;;;;;6195210;28;20022;-68
2022/06/13 09:31:03;;;;;;;1111.78;406.33;;;22.30;53.90;;;;;;6216178;28;20849;-69
2022/06/13 09:34:35;;;;;;;1067.28;397.58;;;22.30;54.00;;;;;;6219669;28;20381;-68
2022/06/13 09:37:56;;;;;;;1051.75;389.73;;;22.30;53.90;;;;;;6174380;28;20065;-68
2022/06/13 09:41:03;;;;;;;860.55;315.80;;;22.30;53.90;;;;;;6196305;28;20042;-68
2022/06/13 09:44:22;;;;;;;809.33;310.35;;;22.30;55.30;;;;;;6204380;28;20029;-68
2022/06/13 09:47:34;;;;;;;770.50;291.00;;;22.40;54.10;;;;;;6222337;28;20088;-68
2022/06/13 09:50:56;;;;;;;766.72;289.20;;;22.30;54.10;;;;;;6208925;28;20073;-68
2022/06/13 09:54:02;;;;;;;765.70;290.17;;;22.40;54.00;;;;;;6211562;28;20026;-68
2022/06/13 09:57:28;;;;;;;741.20;283.10;;;22.40;54.00;;;;;;6222075;28;20026;-68
2022/06/13 10:00:37;;;;;;;730.30;277.33;;;22.30;53.90;;;;;;6215340;28;20053;-68
2022/06/13 10:03:51;;;;;;;719.33;277.88;;;22.30;53.90;;;;;;6221485;28;20033;-68
2022/06/13 10:07:08;;;;;;;695.42;263.83;;;22.30;53.90;;;;;;6200061;28;20046;-68
2022/06/13 10:10:37;;;;;;;690.50;266.15;;;22.30;53.90;;;;;;6203639;28;20014;-68
2022/06/13 10:14:27;;;;;;;659.05;257.50;;;22.30;53.90;;;;;;6181471;28;20339;-68
2022/06/13 10:17:27;;;;;;;648.92;246.20;;;22.20;53.80;;;;;;6168355;28;20101;-68
2022/06/13 10:20:41;;;;;;;630.40;239.60;;;22.30;53.90;;;;;;6168024;28;20039;-68
2022/06/13 10:24:13;;;;;;;599.05;232.00;;;22.20;53.80;;;;;;6194904;28;20032;-68
2022/06/13 10:27:39;;;;;;;581.55;221.48;;;22.20;53.80;;;;;;6180523;28;20390;-68
2022/06/13 10:30:57;;;;;;;587.05;217.57;;;22.20;53.70;;;;;;6191211;28;20077;-68
2022/06/13 10:34:24;;;;;;;554.97;207.57;;;22.20;53.70;;;;;;6208926;28;20023;-68
2022/06/13 10:37:43;;;;;;;537.15;201.82;;;22.20;53.70;;;;;;6198537;28;20046;-66
2022/06/13 10:40:44;;;;;;;541.28;197.18;;;22.20;53.70;;;;;;6202192;28;20433;-68
2022/06/13 10:43:45;;;;;;;538.33;195.98;;;22.20;53.70;;;;;;6219554;28;20080;-68
2022/06/13 10:46:49;;;;;;;519.25;186.32;;;22.20;53.70;;;;;;6220622;28;20033;-68
2022/06/13 10:50:06;;;;;;;508.63;187.45;;;22.20;53.70;;;;;;6219352;28;20024;-67
2022/06/13 10:53:33;;;;;;;483.50;176.82;;;22.20;53.60;;;;;;6203001;28;20034;-68
2022/06/13 10:56:43;;;;;;;461.58;173.90;;;22.10;53.60;;;;;;6213894;28;20036;-68
2022/06/13 10:59:44;;;;;;;455.98;168.32;;;22.10;53.60;;;;;;6219169;28;20042;-67
2022/06/13 11:02:45;;;;;;;437.23;166.63;;;22.10;53.60;;;;;;6197924;28;20049;-67
2022/06/13 11:06:02;;;;;;;433.80;163.05;;;22.10;53.60;;;;;;6212983;28;20029;-68
2022/06/13 11:09:07;;;;;;;414.13;157.35;;;22.20;53.60;;;;;;6195199;28;20050;-67
2022/06/13 11:12:13;;;;;;;416.50;154.05;;;22.20;53.50;;;;;;6195021;28;20018;-68
2022/06/13 11:22:40;;;;;;;357.65;142.45;;;22.10;53.40;;;;;;6200019;28;20030;-68
2022/06/13 11:25:41;;;;;;;366.55;139.02;;;22.20;53.50;;;;;;6211850;28;20029;-68
2022/06/13 11:28:42;;;;;;;349.20;134.35;;;22.10;53.50;;;;;;6194595;28;20030;-67
2022/06/13 11:31:51;;;;;;;339.33;132.88;;;22.10;53.50;;;;;;6198462;28;20026;-67
2022/06/13 11:34:51;;;;;;;348.05;132.30;;;22.10;53.50;;;;;;6194704;28;20034;-67
2022/06/13 11:37:52;;;;;;;320.10;128.45;;;22.10;53.50;;;;;;6194221;28;20135;-67
2022/06/13 11:41:12;;;;;;;313.48;123.93;;;22.10;53.50;;;;;;6193791;28;20110;-67
2022/06/13 11:44:22;;;;;;;312.05;122.72;;;22.10;53.50;;;;;;6218588;28;20038;-67
2022/06/13 11:47:23;;;;;;;301.55;122.00;;;22.10;53.50;;;;;;6218378;28;20385;-67
2022/06/13 11:50:27;;;;;;;301.75;119.57;;;22.10;53.50;;;;;;6217379;28;20034;-67
2022/06/13 11:53:37;;;;;;;298.20;119.43;;;22.10;53.50;;;;;;6208726;28;20101;-67
2022/06/13 11:56:37;;;;;;;293.35;114.38;;;22.10;53.50;;;;;;6214276;28;20050;-67
2022/06/13 11:59:52;;;;;;;271.05;110.45;;;22.10;53.50;;;;;;6193288;28;20060;-67
2022/06/13 12:03:00;;;;;;;269.83;110.37;;;22.10;53.60;;;;;;6193794;28;20149;-67
2022/06/13 12:06:17;;;;;;;262.25;107.07;;;22.10;53.50;;;;;;6218045;28;20080;-67
2022/06/13 12:09:33;;;;;;;261.55;107.03;;;22.10;53.50;;;;;;6193097;28;20493;-67
2022/06/13 12:12:53;;;;;;;263.30;104.43;;;22.10;53.60;;;;;;6193964;28;20065;-67
2022/06/13 12:16:07;;;;;;;246.32;100.13;;;22.10;53.60;;;;;;6194145;28;20494;-67
2022/06/13 12:19:34;;;;;;;238.13;96.95;;;22.10;53.60;;;;;;6215634;28;20030;-67
2022/06/13 12:22:48;;;;;;;233.38;95.10;;;22.10;53.60;;;;;;6217189;28;20616;-68
2022/06/13 12:26:24;;;;;;;227.32;90.88;;;22.10;53.60;;;;;;6218154;28;20052;-67
2022/06/13 12:29:50;;;;;;;243.88;94.03;;;22.10;54.00;;;;;;6216610;28;20030;-68
2022/06/13 12:33:16;;;;;;;220.68;89.07;;;22.10;54.40;;;;;;6208051;28;20560;-68
2022/06/13 12:36:45;;;;;;;222.63;88.65;;;22.20;54.20;;;;;;6193241;28;20050;-68
2022/06/13 12:39:59;;;;;;;208.82;88.28;;;22.20;54.10;;;;;;6192672;28;20401;-67
2022/06/13 12:43:24;;;;;;;204.90;86.63;;;22.20;54.10;;;;;;6203291;28;20026;-68
2022/06/13 12:46:39;;;;;;;201.05;83.60;;;22.20;54.10;;;;;;6165598;28;20602;-68
2022/06/13 12:50:13;;;;;;;208.27;83.70;;;22.30;54.60;;;;;;6214582;28;20467;-68
2022/06/13 12:53:48;;;;;;;197.60;82.47;;;22.30;54.90;;;;;;6216131;28;20030;-67
2022/06/13 12:57:19;;;;;;;202.82;82.53;;;22.30;54.70;;;;;;6217576;28;20030;-67
2022/06/13 13:00:42;;;;;;;210.85;80.70;;;22.30;56.10;;;;;;6192471;28;20076;-69
2022/06/13 13:04:02;;;;;;;199.35;79.82;;;22.30;56.80;;;;;;6208388;28;20037;-68
2022/06/13 13:07:31;;;;;;;184.70;76.43;;;22.30;56.40;;;;;;6220649;28;20036;-69
2022/06/13 13:10:34;;;;;;;190.82;77.15;;;22.30;55.70;;;;;;6196831;28;20085;-68
2022/06/13 13:13:42;;;;;;;178.98;74.90;;;22.30;55.60;;;;;;6206813;28;20739;-69
2022/06/13 13:16:51;;;;;;;169.27;72.80;;;22.30;55.20;;;;;;6222163;28;20392;-68
2022/06/13 13:19:56;;;;;;;174.43;72.82;;;22.20;54.80;;;;;;6220766;28;20038;-69
2022/06/13 13:23:02;;;;;;;171.15;72.18;;;22.30;55.90;;;;;;6221320;28;20025;-69
2022/06/13 13:26:24;;;;;;;163.02;67.65;;;22.40;55.80;;;;;;6220631;28;20026;-69
2022/06/13 13:29:52;;;;;;;158.48;63.60;;;22.40;55.20;;;;;;6203200;28;20022;-69
2022/06/13 13:33:34;;;;;;;150.95;64.97;;;22.40;55.10;;;;;;6221316;28;20543;-69
2022/06/13 13:37:06;;;;;;;140.38;63.65;;;22.40;55.10;;;;;;6121596;29;20063;-69
2022/06/13 13:40:28;;;;;;;134.85;61.33;;;22.40;55.80;;;;;;6120375;28;20069;-69
2022/06/13 13:43:44;;;;;;;145.57;61.65;;;22.40;55.10;;;;;;6201826;28;20096;-69
2022/06/13 13:46:51;;;;;;;;;;;22.40;55.20;;;;;;6221813;28;20026;-69
2022/06/13 13:49:58;;;;;;;141.00;60.83;;;22.40;55.20;;;;;;6204748;28;19959;-69
2022/06/13 13:53:05;;;;;;;128.18;56.72;;;22.40;55.30;;;;;;6203706;28;20025;-69
2022/06/13 13:56:15;;;;;;;126.53;57.10;;;22.40;55.10;;;;;;6221298;28;20030;-69
2022/06/13 13:59:19;;;;;;;121.93;55.85;;;22.40;54.90;;;;;;6220646;28;20035;-69
2022/06/13 14:02:54;;;;;;;113.38;53.80;;;22.30;54.80;;;;;;6220903;28;20030;-69
2022/06/13 14:06:23;;;;;;;112.68;52.35;;;22.30;54.80;;;;;;6214353;28;20440;-69
2022/06/13 14:09:24;;;;;;;116.13;52.88;;;22.30;54.80;;;;;;6211084;28;20030;-69
2022/06/13 14:12:25;;;;;;;111.97;50.28;;;22.30;54.80;;;;;;6189858;28;20061;-69
2022/06/13 14:15:36;;;;;;;105.57;49.40;;;22.30;54.70;;;;;;6212759;28;20033;-69
2022/06/13 14:18:54;;;;;;;97.97;48.40;;;22.30;54.70;;;;;;6216653;28;20030;-69
2022/06/13 14:21:56;;;;;;;101.47;47.75;;;22.30;54.70;;;;;;6220206;28;20372;-69
2022/06/13 14:25:05;;;;;;;97.20;46.17;;;22.30;54.70;;;;;;6208421;28;20105;-69
2022/06/13 14:28:18;;;;;;;92.22;44.78;;;22.30;54.70;;;;;;6210779;28;20030;-69
2022/06/13 14:31:19;;;;;;;96.18;43.65;;;22.30;54.70;;;;;;6196679;28;20092;-69
2022/06/13 14:35:27;;;;;;;86.07;41.45;;;22.20;54.60;;;;;;6196019;28;20223;-69
2022/06/13 14:38:05;;;;;;;84.95;40.40;;;22.30;54.70;;;;;;6158081;28;20133;-69
2022/06/13 14:41:14;;;;;;;79.47;39.45;;;22.30;54.60;;;;;;6189948;28;20579;-69
2022/06/13 14:44:34;;;;;;;81.82;38.85;;;22.30;54.60;;;;;;6192657;28;20497;-68
2022/06/13 14:47:55;;;;;;;81.85;38.78;;;22.30;54.50;;;;;;6171398;28;20398;-69
2022/06/13 14:50:56;;;;;;;78.78;36.88;;;22.20;55.20;;;;;;6186392;28;20031;-69
2022/06/13 14:54:03;;;;;;;74.28;36.63;;;22.30;54.60;;;;;;6196105;28;20038;-69
2022/06/13 14:57:27;;;;;;;77.20;38.28;;;22.30;54.50;;;;;;6171783;28;20035;-68
2022/06/13 15:00:31;;;;;;;72.00;34.75;;;22.20;54.40;;;;;;6177625;28;20046;-68
2022/06/13 15:03:51;;;;;;;76.68;35.28;;;22.30;54.50;;;;;;6195540;28;20481;-69
2022/06/13 15:06:58;;;;;;;66.93;33.95;;;22.20;54.40;;;;;;6194768;28;20026;-69
2022/06/13 15:10:06;;;;;;;65.32;33.05;;;22.30;54.50;;;;;;6188864;28;20114;-69
2022/06/13 15:13:07;;;;;;;63.97;33.22;;;22.20;54.40;;;;;;6178833;28;20084;-68
2022/06/13 15:16:11;;;;;;;61.10;31.83;;;22.20;54.40;;;;;;6180289;28;20030;-69
2022/06/13 15:19:12;;;;;;;59.30;31.30;;;22.30;54.40;;;;;;6170163;28;20564;-68
2022/06/13 15:22:17;;;;;;;56.83;29.13;;;22.20;54.30;;;;;;6192395;28;20442;-68
2022/06/13 15:25:39;;;;;;;58.28;29.98;;;22.30;54.40;;;;;;6172821;28;20038;-68
2022/06/13 15:29:03;;;;;;;58.47;28.83;;;22.30;54.40;;;;;;6170901;28;20030;-68
2022/06/13 15:32:32;;;;;;;54.35;29.05;;;22.20;54.30;;;;;;6189923;28;20613;-69
2022/06/13 15:35:58;;;;;;;52.92;28.08;;;22.30;54.40;;;;;;6196834;28;20555;-68
2022/06/13 15:38:59;;;;;;;51.47;28.02;;;22.30;54.40;;;;;;6208996;28;20528;-69
2022/06/13 15:42:04;;;;;;;49.72;28.27;;;22.20;54.30;;;;;;6195008;28;20036;-69
2022/06/13 15:45:13;;;;;;;46.67;25.38;;;22.20;54.30;;;;;;6192800;28;20029;-69
2022/06/13 15:48:15;;;;;;;48.30;26.15;;;22.30;54.40;;;;;;6185363;28;20050;-69
2022/06/13 15:51:22;;;;;;;46.42;24.67;;;22.30;54.30;;;;;;6197091;28;20488;-69
2022/06/13 15:54:23;;;;;;;45.78;23.95;;;22.30;54.30;;;;;;6194946;28;20034;-69
2022/06/13 15:57:25;;;;;;;41.78;23.70;;;22.20;54.20;;;;;;6189204;28;20065;-69
2022/06/13 16:00:37;;;;;;;46.03;23.90;;;22.30;54.30;;;;;;6212783;28;20036;-68
2022/06/13 16:03:39;;;;;;;48.70;24.33;;;22.30;54.30;;;;;;6198829;28;20030;-68
2022/06/13 16:06:44;;;;;;;39.83;21.85;;;22.30;54.30;;;;;;6209402;28;20098;-69
2022/06/13 16:09:45;;;;;;;41.85;23.25;;;22.30;54.30;;;;;;6218462;28;20030;-69
2022/06/13 16:12:49;;;;;;;38.85;21.15;;;22.30;54.30;;;;;;6198265;28;20041;-69
2022/06/13 16:15:51;;;;;;;49.60;22.57;;;22.30;54.30;;;;;;6196115;28;20412;-68
2022/06/13 16:18:53;;;;;;;45.15;21.40;;;22.30;54.40;;;;;;6217114;28;20025;-69
2022/06/13 16:21:56;;;;;;;46.17;22.27;;;22.40;54.60;;;;;;6207285;28;20024;-69
2022/06/13 16:25:00;;;;;;;42.88;20.77;;;22.40;54.60;;;;;;6201837;28;20026;-69
2022/06/13 16:28:03;;;;;;;65.60;24.55;;;22.40;54.60;;;;;;6192063;28;20046;-70
2022/06/13 16:31:10;;;;;;;70.30;23.88;;;22.50;54.50;;;;;;6192132;28;20014;-69